sensor_id;sensor_type;location;lat;lon;timestamp;pressure;altitude;pressure_sealevel;temperature;humidity
61484;BME280;47349;55.640;37.692;2023-04-10T00:00:31;100146.19;;;9.48;48.67
61484;BME280;47349;55.640;37.692;2023-04-10T00:02:58;100155.19;;;9.47;48.18
61484;BME280;47349;55.640;37.692;2023-04-10T00:05:29;100142.66;;;9.48;48.11
61484;BME280;47349;55.640;37.692;2023-04-10T00:07:56;100147.56;;;9.52;48.17
61484;BME280;47349;55.640;37.692;2023-04-10T00:10:23;100153.03;;;9.51;48.35
61484;BME280;47349;55.640;37.692;2023-04-10T00:12:52;100153.66;;;9.45;48.18
61484;BME280;47349;55.640;37.692;2023-04-10T00:15:19;100156.50;;;9.43;48.04
61484;BME280;47349;55.640;37.692;2023-04-10T00:17:46;100159.31;;;9.42;47.32
61484;BME280;47349;55.640;37.692;2023-04-10T00:20:16;100156.97;;;9.39;47.03
61484;BME280;47349;55.640;37.692;2023-04-10T00:22:43;100158.66;;;9.40;48.19
61484;BME280;47349;55.640;37.692;2023-04-10T00:25:10;100154.44;;;9.37;47.74
61484;BME280;47349;55.640;37.692;2023-04-10T00:27:37;100161.97;;;9.34;47.97
61484;BME280;47349;55.640;37.692;2023-04-10T00:30:04;100152.94;;;9.35;47.44
61484;BME280;47349;55.640;37.692;2023-04-10T00:32:31;100151.94;;;9.36;47.88
61484;BME280;47349;55.640;37.692;2023-04-10T00:34:58;100158.97;;;9.37;48.35
61484;BME280;47349;55.640;37.692;2023-04-10T00:37:25;100159.66;;;9.39;48.36
61484;BME280;47349;55.640;37.692;2023-04-10T00:39:53;100155.69;;;9.43;48.11
61484;BME280;47349;55.640;37.692;2023-04-10T00:42:19;100161.41;;;9.48;48.25
61484;BME280;47349;55.640;37.692;2023-04-10T00:44:47;100161.06;;;9.51;47.82
61484;BME280;47349;55.640;37.692;2023-04-10T00:47:14;100156.41;;;9.53;48.06
61484;BME280;47349;55.640;37.692;2023-04-10T00:49:41;100154.41;;;9.55;48.04
61484;BME280;47349;55.640;37.692;2023-04-10T00:52:09;100155.56;;;9.52;47.80
61484;BME280;47349;55.640;37.692;2023-04-10T00:54:36;100152.41;;;9.57;48.30
61484;BME280;47349;55.640;37.692;2023-04-10T00:57:04;100155.25;;;9.56;48.00
61484;BME280;47349;55.640;37.692;2023-04-10T00:59:31;100169.44;;;9.48;48.00
61484;BME280;47349;55.640;37.692;2023-04-10T01:01:58;100171.72;;;9.43;48.42
61484;BME280;47349;55.640;37.692;2023-04-10T01:04:27;100162.84;;;9.42;48.50
61484;BME280;47349;55.640;37.692;2023-04-10T01:06:57;100157.66;;;9.41;48.04
61484;BME280;47349;55.640;37.692;2023-04-10T01:09:31;100157.94;;;9.38;47.65
61484;BME280;47349;55.640;37.692;2023-04-10T01:16:57;100149.47;;;9.42;48.55
61484;BME280;47349;55.640;37.692;2023-04-10T01:19:39;100156.66;;;9.42;48.09
61484;BME280;47349;55.640;37.692;2023-04-10T01:22:09;100149.31;;;9.44;47.91
61484;BME280;47349;55.640;37.692;2023-04-10T01:29:55;100141.88;;;9.30;48.61
61484;BME280;47349;55.640;37.692;2023-04-10T01:32:25;100143.69;;;9.29;48.11
61484;BME280;47349;55.640;37.692;2023-04-10T01:34:54;100152.69;;;9.28;48.58
61484;BME280;47349;55.640;37.692;2023-04-10T01:37:23;100147.84;;;9.23;48.56
61484;BME280;47349;55.640;37.692;2023-04-10T01:39:53;100153.50;;;9.20;48.76
61484;BME280;47349;55.640;37.692;2023-04-10T01:42:25;100155.63;;;9.17;48.82
61484;BME280;47349;55.640;37.692;2023-04-10T01:44:53;100154.25;;;9.13;48.45
61484;BME280;47349;55.640;37.692;2023-04-10T01:47:21;100159.09;;;9.09;48.83
61484;BME280;47349;55.640;37.692;2023-04-10T01:49:49;100156.72;;;9.06;49.00
61484;BME280;47349;55.640;37.692;2023-04-10T01:52:17;100158.03;;;9.02;49.53
61484;BME280;47349;55.640;37.692;2023-04-10T01:54:50;100152.69;;;9.02;49.26
61484;BME280;47349;55.640;37.692;2023-04-10T01:57:23;100153.50;;;9.02;49.50
61484;BME280;47349;55.640;37.692;2023-04-10T01:59:56;100154.81;;;8.98;49.22
61484;BME280;47349;55.640;37.692;2023-04-10T02:02:24;100149.63;;;8.97;48.92
61484;BME280;47349;55.640;37.692;2023-04-10T02:04:51;100147.94;;;8.96;49.64
61484;BME280;47349;55.640;37.692;2023-04-10T02:09:59;100156.25;;;8.93;49.56
61484;BME280;47349;55.640;37.692;2023-04-10T02:12:29;100158.94;;;8.93;49.81
61484;BME280;47349;55.640;37.692;2023-04-10T02:14:58;100163.44;;;8.92;49.91
61484;BME280;47349;55.640;37.692;2023-04-10T02:17:28;100158.25;;;8.91;50.06
61484;BME280;47349;55.640;37.692;2023-04-10T02:19:55;100162.31;;;8.95;50.04
61484;BME280;47349;55.640;37.692;2023-04-10T02:22:23;100161.00;;;8.99;49.71
61484;BME280;47349;55.640;37.692;2023-04-10T02:24:51;100156.66;;;8.98;49.65
61484;BME280;47349;55.640;37.692;2023-04-10T02:27:26;100148.50;;;8.99;49.69
61484;BME280;47349;55.640;37.692;2023-04-10T02:29:53;100144.66;;;9.02;49.70
61484;BME280;47349;55.640;37.692;2023-04-10T02:32:20;100150.00;;;9.02;49.95
61484;BME280;47349;55.640;37.692;2023-04-10T02:34:47;100148.50;;;8.99;49.57
61484;BME280;47349;55.640;37.692;2023-04-10T02:37:14;100153.34;;;9.04;49.71
61484;BME280;47349;55.640;37.692;2023-04-10T02:39:41;100166.72;;;9.04;50.02
61484;BME280;47349;55.640;37.692;2023-04-10T02:42:08;100169.38;;;9.04;50.21
61484;BME280;47349;55.640;37.692;2023-04-10T02:44:36;100151.16;;;8.99;50.26
61484;BME280;47349;55.640;37.692;2023-04-10T02:47:04;100158.69;;;9.04;50.35
61484;BME280;47349;55.640;37.692;2023-04-10T02:49:33;100169.34;;;8.96;50.81
61484;BME280;47349;55.640;37.692;2023-04-10T02:52:08;100155.34;;;9.02;50.88
61484;BME280;47349;55.640;37.692;2023-04-10T02:54:35;100161.59;;;9.11;50.81
61484;BME280;47349;55.640;37.692;2023-04-10T02:57:02;100160.44;;;9.13;50.90
61484;BME280;47349;55.640;37.692;2023-04-10T02:59:30;100161.53;;;9.20;50.78
61484;BME280;47349;55.640;37.692;2023-04-10T03:01:57;100159.38;;;9.24;50.86
61484;BME280;47349;55.640;37.692;2023-04-10T03:04:25;100163.09;;;9.31;50.47
61484;BME280;47349;55.640;37.692;2023-04-10T03:06:52;100160.78;;;9.36;50.71
61484;BME280;47349;55.640;37.692;2023-04-10T03:09:20;100158.50;;;9.41;50.96
61484;BME280;47349;55.640;37.692;2023-04-10T03:11:47;100156.19;;;9.46;51.66
61484;BME280;47349;55.640;37.692;2023-04-10T03:14:14;100158.38;;;9.51;51.97
61484;BME280;47349;55.640;37.692;2023-04-10T03:16:41;100160.59;;;9.56;51.78
61484;BME280;47349;55.640;37.692;2023-04-10T03:19:08;100162.13;;;9.58;51.57
61484;BME280;47349;55.640;37.692;2023-04-10T03:21:35;100150.25;;;9.61;52.54
61484;BME280;47349;55.640;37.692;2023-04-10T03:24:03;100150.13;;;9.62;51.98
61484;BME280;47349;55.640;37.692;2023-04-10T03:26:30;100148.75;;;9.58;51.51
61484;BME280;47349;55.640;37.692;2023-04-10T03:28:57;100150.78;;;9.38;51.91
61484;BME280;47349;55.640;37.692;2023-04-10T03:31:24;100159.28;;;9.34;52.26
61484;BME280;47349;55.640;37.692;2023-04-10T03:34:06;100155.53;;;9.26;52.50
61484;BME280;47349;55.640;37.692;2023-04-10T03:36:36;100150.53;;;9.23;53.15
61484;BME280;47349;55.640;37.692;2023-04-10T03:39:13;100159.84;;;9.19;54.08
61484;BME280;47349;55.640;37.692;2023-04-10T03:41:56;100157.84;;;9.21;53.90
61484;BME280;47349;55.640;37.692;2023-04-10T03:44:30;100153.03;;;9.25;53.84
61484;BME280;47349;55.640;37.692;2023-04-10T03:46:59;100164.47;;;9.35;54.52
61484;BME280;47349;55.640;37.692;2023-04-10T03:49:37;100158.81;;;9.38;54.78
61484;BME280;47349;55.640;37.692;2023-04-10T03:52:06;100161.53;;;9.46;54.86
61484;BME280;47349;55.640;37.692;2023-04-10T03:54:48;100161.44;;;9.56;54.76
61484;BME280;47349;55.640;37.692;2023-04-10T03:57:23;100161.78;;;9.61;54.46
61484;BME280;47349;55.640;37.692;2023-04-10T04:00:02;100164.69;;;9.68;55.77
61484;BME280;47349;55.640;37.692;2023-04-10T04:02:48;100157.63;;;9.67;56.47
61484;BME280;47349;55.640;37.692;2023-04-10T04:05:49;100156.88;;;9.74;56.29
61484;BME280;47349;55.640;37.692;2023-04-10T04:08:40;100154.84;;;9.76;56.41
61484;BME280;47349;55.640;37.692;2023-04-10T04:11:33;100159.25;;;9.86;57.02
61484;BME280;47349;55.640;37.692;2023-04-10T04:14:14;100158.78;;;9.90;56.04
61484;BME280;47349;55.640;37.692;2023-04-10T04:17:17;100160.78;;;9.88;56.88
61484;BME280;47349;55.640;37.692;2023-04-10T04:20:19;100158.28;;;9.87;57.40
61484;BME280;47349;55.640;37.692;2023-04-10T04:23:30;100159.78;;;9.89;56.89
61484;BME280;47349;55.640;37.692;2023-04-10T04:26:33;100154.13;;;9.92;56.82
61484;BME280;47349;55.640;37.692;2023-04-10T04:29:40;100155.34;;;10.06;56.46
61484;BME280;47349;55.640;37.692;2023-04-10T04:32:23;100154.75;;;10.20;55.96
61484;BME280;47349;55.640;37.692;2023-04-10T04:35:02;100160.34;;;10.43;55.52
61484;BME280;47349;55.640;37.692;2023-04-10T04:37:58;100154.16;;;10.43;55.49
61484;BME280;47349;55.640;37.692;2023-04-10T04:40:58;100155.28;;;10.24;55.71
61484;BME280;47349;55.640;37.692;2023-04-10T04:43:51;100154.31;;;10.33;55.63
61484;BME280;47349;55.640;37.692;2023-04-10T04:46:48;100146.13;;;10.43;55.33
61484;BME280;47349;55.640;37.692;2023-04-10T04:49:57;100148.84;;;10.51;55.94
61484;BME280;47349;55.640;37.692;2023-04-10T04:53:12;100144.53;;;10.74;54.06
61484;BME280;47349;55.640;37.692;2023-04-10T04:56:00;100143.03;;;10.96;53.79
61484;BME280;47349;55.640;37.692;2023-04-10T04:58:51;100152.59;;;11.15;53.42
61484;BME280;47349;55.640;37.692;2023-04-10T05:01:46;100147.56;;;11.28;52.93
61484;BME280;47349;55.640;37.692;2023-04-10T05:04:48;100152.06;;;11.44;51.65
61484;BME280;47349;55.640;37.692;2023-04-10T05:07:36;100154.56;;;11.54;51.32
61484;BME280;47349;55.640;37.692;2023-04-10T05:10:24;100140.63;;;11.50;51.19
61484;BME280;47349;55.640;37.692;2023-04-10T05:13:19;100150.72;;;11.40;52.19
61484;BME280;47349;55.640;37.692;2023-04-10T05:16:18;100152.75;;;11.38;52.64
61484;BME280;47349;55.640;37.692;2023-04-10T05:19:03;100148.22;;;11.39;52.11
61484;BME280;47349;55.640;37.692;2023-04-10T05:21:50;100149.19;;;11.46;52.53
61484;BME280;47349;55.640;37.692;2023-04-10T05:24:44;100148.19;;;11.63;51.63
61484;BME280;47349;55.640;37.692;2023-04-10T05:27:46;100156.34;;;11.78;52.57
61484;BME280;47349;55.640;37.692;2023-04-10T05:30:36;100157.03;;;11.88;51.15
61484;BME280;47349;55.640;37.692;2023-04-10T05:33:06;100161.38;;;11.97;51.27
61484;BME280;47349;55.640;37.692;2023-04-10T05:36:26;100164.16;;;12.12;50.33
61484;BME280;47349;55.640;37.692;2023-04-10T05:39:49;100163.09;;;12.29;49.86
61484;BME280;47349;55.640;37.692;2023-04-10T05:42:53;100166.91;;;12.43;49.71
61484;BME280;47349;55.640;37.692;2023-04-10T05:45:57;100166.28;;;12.64;49.95
61484;BME280;47349;55.640;37.692;2023-04-10T05:48:49;100168.41;;;12.77;49.20
61484;BME280;47349;55.640;37.692;2023-04-10T05:52:02;100173.88;;;12.83;48.97
61484;BME280;47349;55.640;37.692;2023-04-10T05:55:22;100160.00;;;12.95;48.45
61484;BME280;47349;55.640;37.692;2023-04-10T05:58:21;100165.03;;;12.98;47.39
61484;BME280;47349;55.640;37.692;2023-04-10T06:01:11;100163.00;;;13.00;46.90
61484;BME280;47349;55.640;37.692;2023-04-10T06:04:00;100170.06;;;13.01;46.69
61484;BME280;47349;55.640;37.692;2023-04-10T06:06:43;100167.69;;;13.06;46.54
61484;BME280;47349;55.640;37.692;2023-04-10T06:09:24;100158.81;;;12.97;46.73
61484;BME280;47349;55.640;37.692;2023-04-10T06:18:03;100171.25;;;12.98;47.61
61484;BME280;47349;55.640;37.692;2023-04-10T06:20:32;100169.06;;;13.02;47.21
61484;BME280;47349;55.640;37.692;2023-04-10T06:23:13;100170.53;;;13.04;46.53
61484;BME280;47349;55.640;37.692;2023-04-10T06:25:55;100173.41;;;13.03;47.01
61484;BME280;47349;55.640;37.692;2023-04-10T06:28:28;100178.91;;;13.09;46.96
61484;BME280;47349;55.640;37.692;2023-04-10T06:31:02;100171.25;;;13.21;46.99
61484;BME280;47349;55.640;37.692;2023-04-10T06:33:38;100168.63;;;13.13;46.89
61484;BME280;47349;55.640;37.692;2023-04-10T06:36:09;100167.25;;;13.17;46.78
61484;BME280;47349;55.640;37.692;2023-04-10T06:38:44;100173.06;;;13.29;46.87
61484;BME280;47349;55.640;37.692;2023-04-10T06:41:16;100178.91;;;13.32;45.94
61484;BME280;47349;55.640;37.692;2023-04-10T06:44:11;100175.09;;;13.27;45.41
61484;BME280;47349;55.640;37.692;2023-04-10T06:46:53;100180.19;;;13.22;44.94
61484;BME280;47349;55.640;37.692;2023-04-10T06:49:22;100178.50;;;13.21;45.58
61484;BME280;47349;55.640;37.692;2023-04-10T06:51:54;100182.19;;;13.20;45.61
61484;BME280;47349;55.640;37.692;2023-04-10T06:54:28;100180.28;;;13.28;45.41
61484;BME280;47349;55.640;37.692;2023-04-10T06:57:10;100188.66;;;13.33;45.22
61484;BME280;47349;55.640;37.692;2023-04-10T06:59:46;100182.63;;;13.31;44.42
61484;BME280;47349;55.640;37.692;2023-04-10T07:02:23;100177.81;;;13.19;45.20
61484;BME280;47349;55.640;37.692;2023-04-10T07:05:11;100188.28;;;13.22;45.74
61484;BME280;47349;55.640;37.692;2023-04-10T07:07:41;100193.53;;;13.15;44.48
61484;BME280;47349;55.640;37.692;2023-04-10T07:10:36;100200.09;;;13.12;44.96
61484;BME280;47349;55.640;37.692;2023-04-10T07:13:09;100196.84;;;13.17;45.05
61484;BME280;47349;55.640;37.692;2023-04-10T07:15:41;100199.53;;;13.25;45.09
61484;BME280;47349;55.640;37.692;2023-04-10T07:18:16;100191.47;;;13.17;45.18
61484;BME280;47349;55.640;37.692;2023-04-10T07:20:43;100195.78;;;13.03;44.71
61484;BME280;47349;55.640;37.692;2023-04-10T07:23:14;100200.75;;;12.92;45.18
61484;BME280;47349;55.640;37.692;2023-04-10T07:25:44;100199.72;;;12.93;45.46
61484;BME280;47349;55.640;37.692;2023-04-10T07:28:20;100195.97;;;13.02;45.60
61484;BME280;47349;55.640;37.692;2023-04-10T07:31:01;100196.91;;;13.09;45.54
61484;BME280;47349;55.640;37.692;2023-04-10T07:33:37;100204.09;;;13.17;45.61
61484;BME280;47349;55.640;37.692;2023-04-10T07:36:17;100190.16;;;13.13;45.83
61484;BME280;47349;55.640;37.692;2023-04-10T07:38:47;100192.66;;;13.15;45.35
61484;BME280;47349;55.640;37.692;2023-04-10T07:41:15;100200.97;;;13.05;45.75
61484;BME280;47349;55.640;37.692;2023-04-10T07:43:44;100203.06;;;12.95;45.17
61484;BME280;47349;55.640;37.692;2023-04-10T07:46:19;100199.34;;;12.96;44.65
61484;BME280;47349;55.640;37.692;2023-04-10T07:48:47;100198.28;;;13.05;45.30
61484;BME280;47349;55.640;37.692;2023-04-10T07:51:16;100192.53;;;13.08;45.25
61484;BME280;47349;55.640;37.692;2023-04-10T07:53:48;100187.47;;;13.13;45.21
61484;BME280;47349;55.640;37.692;2023-04-10T07:56:20;100190.16;;;13.13;45.17
61484;BME280;47349;55.640;37.692;2023-04-10T07:58:54;100189.94;;;13.23;45.05
61484;BME280;47349;55.640;37.692;2023-04-10T08:01:23;100191.59;;;13.24;45.06
61484;BME280;47349;55.640;37.692;2023-04-10T08:03:53;100184.72;;;13.21;45.35
61484;BME280;47349;55.640;37.692;2023-04-10T08:06:25;100191.47;;;13.17;45.29
61484;BME280;47349;55.640;37.692;2023-04-10T08:08:53;100193.81;;;13.20;45.26
61484;BME280;47349;55.640;37.692;2023-04-10T08:11:36;100191.13;;;13.20;45.26
61484;BME280;47349;55.640;37.692;2023-04-10T08:14:05;100190.44;;;13.18;45.72
61484;BME280;47349;55.640;37.692;2023-04-10T08:16:34;100194.88;;;13.34;45.32
61484;BME280;47349;55.640;37.692;2023-04-10T08:19:04;100196.59;;;13.35;45.24
61484;BME280;47349;55.640;37.692;2023-04-10T08:21:34;100191.66;;;13.38;45.03
61484;BME280;47349;55.640;37.692;2023-04-10T08:34:59;100190.59;;;13.62;44.51
61484;BME280;47349;55.640;37.692;2023-04-10T08:37:28;100187.00;;;13.70;44.28
61484;BME280;47349;55.640;37.692;2023-04-10T08:39:57;100194.63;;;13.81;44.09
61484;BME280;47349;55.640;37.692;2023-04-10T08:42:28;100187.75;;;13.94;44.09
61484;BME280;47349;55.640;37.692;2023-04-10T08:45:01;100180.31;;;14.10;44.01
61484;BME280;47349;55.640;37.692;2023-04-10T08:47:44;100179.56;;;14.31;43.81
61484;BME280;47349;55.640;37.692;2023-04-10T08:50:12;100172.59;;;14.37;43.49
61484;BME280;47349;55.640;37.692;2023-04-10T08:52:57;100177.69;;;14.47;43.57
61484;BME280;47349;55.640;37.692;2023-04-10T08:55:28;100175.00;;;14.47;43.64
61484;BME280;47349;55.640;37.692;2023-04-10T08:58:20;100178.00;;;14.22;43.65
61484;BME280;47349;55.640;37.692;2023-04-10T09:00:49;100176.97;;;14.23;43.77
61484;BME280;47349;55.640;37.692;2023-04-10T09:03:35;100173.44;;;14.37;44.16
61484;BME280;47349;55.640;37.692;2023-04-10T09:06:07;100170.16;;;14.42;44.65
61484;BME280;47349;55.640;37.692;2023-04-10T09:14:26;100173.44;;;14.37;44.09
61484;BME280;47349;55.640;37.692;2023-04-10T09:17:10;100171.56;;;14.53;43.67
61484;BME280;47349;55.640;37.692;2023-04-10T09:19:53;100172.03;;;14.56;42.35
61484;BME280;47349;55.640;37.692;2023-04-10T09:22:31;100169.22;;;14.35;43.03
61484;BME280;47349;55.640;37.692;2023-04-10T09:25:33;100168.41;;;14.34;43.24
61484;BME280;47349;55.640;37.692;2023-04-10T09:28:07;100167.63;;;14.40;43.32
61484;BME280;47349;55.640;37.692;2023-04-10T09:30:37;100168.22;;;14.51;42.76
61484;BME280;47349;55.640;37.692;2023-04-10T09:33:26;100165.41;;;14.59;42.43
61484;BME280;47349;55.640;37.692;2023-04-10T09:35:56;100161.66;;;14.60;43.00
61484;BME280;47349;55.640;37.692;2023-04-10T09:38:37;100154.09;;;14.49;43.60
61484;BME280;47349;55.640;37.692;2023-04-10T09:41:21;100157.56;;;14.64;43.14
61484;BME280;47349;55.640;37.692;2023-04-10T09:44:04;100152.28;;;14.71;43.20
61484;BME280;47349;55.640;37.692;2023-04-10T09:49:56;100154.81;;;14.79;43.19
61484;BME280;47349;55.640;37.692;2023-04-10T09:52:40;100164.41;;;14.81;43.48
61484;BME280;47349;55.640;37.692;2023-04-10T09:55:08;100154.19;;;14.98;43.15
61484;BME280;47349;55.640;37.692;2023-04-10T09:57:56;100151.06;;;14.95;43.27
61484;BME280;47349;55.640;37.692;2023-04-10T10:00:27;100157.72;;;14.99;42.97
61484;BME280;47349;55.640;37.692;2023-04-10T10:03:01;100149.56;;;14.92;43.28
61484;BME280;47349;55.640;37.692;2023-04-10T10:05:50;100144.44;;;14.97;42.86
61484;BME280;47349;55.640;37.692;2023-04-10T10:11:04;100149.50;;;15.07;42.44
61484;BME280;47349;55.640;37.692;2023-04-10T10:13:49;100146.44;;;15.10;41.70
61484;BME280;47349;55.640;37.692;2023-04-10T10:16:51;100150.53;;;15.06;42.20
61484;BME280;47349;55.640;37.692;2023-04-10T10:19:37;100147.84;;;14.84;42.87
61484;BME280;47349;55.640;37.692;2023-04-10T10:22:13;100141.22;;;14.65;43.20
61484;BME280;47349;55.640;37.692;2023-04-10T10:24:44;100140.81;;;14.69;43.30
61484;BME280;47349;55.640;37.692;2023-04-10T10:27:14;100144.34;;;14.69;43.38
61484;BME280;47349;55.640;37.692;2023-04-10T10:29:43;100135.25;;;14.70;42.70
61484;BME280;47349;55.640;37.692;2023-04-10T10:32:16;100131.91;;;14.89;42.30
61484;BME280;47349;55.640;37.692;2023-04-10T10:34:53;100140.00;;;14.89;41.75
61484;BME280;47349;55.640;37.692;2023-04-10T10:37:41;100135.38;;;14.83;42.02
61484;BME280;47349;55.640;37.692;2023-04-10T10:40:13;100126.59;;;14.75;41.42
61484;BME280;47349;55.640;37.692;2023-04-10T10:43:11;100128.16;;;14.69;40.76
61484;BME280;47349;55.640;37.692;2023-04-10T10:45:49;100126.03;;;14.64;40.41
61484;BME280;47349;55.640;37.692;2023-04-10T10:48:25;100127.91;;;14.64;40.26
61484;BME280;47349;55.640;37.692;2023-04-10T10:50:57;100123.00;;;14.53;40.38
61484;BME280;47349;55.640;37.692;2023-04-10T10:53:38;100123.59;;;14.48;40.29
61484;BME280;47349;55.640;37.692;2023-04-10T10:56:53;100128.22;;;14.39;39.91
61484;BME280;47349;55.640;37.692;2023-04-10T10:58:57;100119.53;;;14.23;40.66
61484;BME280;47349;55.640;37.692;2023-04-10T11:01:36;100118.41;;;14.17;41.16
61484;BME280;47349;55.640;37.692;2023-04-10T11:07:03;100115.59;;;14.25;41.07
61484;BME280;47349;55.640;37.692;2023-04-10T11:12:25;100116.78;;;14.52;40.11
61484;BME280;47349;55.640;37.692;2023-04-10T11:15:08;100121.56;;;14.72;40.24
61484;BME280;47349;55.640;37.692;2023-04-10T11:17:48;100114.56;;;14.77;39.53
61484;BME280;47349;55.640;37.692;2023-04-10T11:20:23;100111.06;;;14.62;39.98
61484;BME280;47349;55.640;37.692;2023-04-10T11:23:09;100112.22;;;14.53;40.00
61484;BME280;47349;55.640;37.692;2023-04-10T11:34:07;100119.50;;;14.95;40.10
61484;BME280;47349;55.640;37.692;2023-04-10T11:36:37;100112.88;;;15.19;39.76
61484;BME280;47349;55.640;37.692;2023-04-10T11:39:09;100103.16;;;15.53;39.72
61484;BME280;47349;55.640;37.692;2023-04-10T11:41:41;100108.88;;;15.71;38.48
61484;BME280;47349;55.640;37.692;2023-04-10T11:44:11;100114.59;;;15.89;38.34
61484;BME280;47349;55.640;37.692;2023-04-10T11:46:44;100107.63;;;16.08;37.80
61484;BME280;47349;55.640;37.692;2023-04-10T11:49:23;100099.72;;;16.07;37.54
61484;BME280;47349;55.640;37.692;2023-04-10T11:51:52;100097.94;;;16.27;37.32
61484;BME280;47349;55.640;37.692;2023-04-10T11:54:29;100102.34;;;16.41;37.22
61484;BME280;47349;55.640;37.692;2023-04-10T11:59:51;100095.22;;;16.27;36.83
61484;BME280;47349;55.640;37.692;2023-04-10T12:02:19;100099.03;;;15.91;37.62
61484;BME280;47349;55.640;37.692;2023-04-10T12:04:56;100092.97;;;15.89;38.08
61484;BME280;47349;55.640;37.692;2023-04-10T12:07:27;100091.66;;;15.72;38.48
61484;BME280;47349;55.640;37.692;2023-04-10T12:09:59;100088.31;;;15.70;38.65
61484;BME280;47349;55.640;37.692;2023-04-10T12:12:35;100085.22;;;15.73;38.70
61484;BME280;47349;55.640;37.692;2023-04-10T12:15:24;100095.53;;;15.63;38.90
61484;BME280;47349;55.640;37.692;2023-04-10T12:18:01;100093.91;;;15.40;39.21
61484;BME280;47349;55.640;37.692;2023-04-10T12:20:30;100085.22;;;15.17;39.14
61484;BME280;47349;55.640;37.692;2023-04-10T12:23:01;100088.47;;;14.84;39.86
61484;BME280;47349;55.640;37.692;2023-04-10T12:25:29;100088.22;;;14.58;39.97
61484;BME280;47349;55.640;37.692;2023-04-10T12:28:15;100084.31;;;14.60;40.39
61484;BME280;47349;55.640;37.692;2023-04-10T12:30:47;100090.84;;;14.51;40.81
61484;BME280;47349;55.640;37.692;2023-04-10T12:33:20;100093.00;;;14.41;41.18
61484;BME280;47349;55.640;37.692;2023-04-10T12:36:01;100086.72;;;14.19;41.64
61484;BME280;47349;55.640;37.692;2023-04-10T12:38:36;100080.97;;;14.07;42.00
61484;BME280;47349;55.640;37.692;2023-04-10T12:41:09;100084.03;;;14.04;42.25
61484;BME280;47349;55.640;37.692;2023-04-10T12:43:52;100095.19;;;13.86;42.52
61484;BME280;47349;55.640;37.692;2023-04-10T12:46:37;100090.66;;;13.72;43.07
61484;BME280;47349;55.640;37.692;2023-04-10T12:49:20;100092.97;;;13.46;45.64
61484;BME280;47349;55.640;37.692;2023-04-10T12:51:57;100085.66;;;13.17;46.62
61484;BME280;47349;55.640;37.692;2023-04-10T12:54:28;100090.72;;;12.97;47.44
61484;BME280;47349;55.640;37.692;2023-04-10T12:57:17;100092.59;;;12.73;48.97
61484;BME280;47349;55.640;37.692;2023-04-10T12:59:55;100092.16;;;12.39;50.54
61484;BME280;47349;55.640;37.692;2023-04-10T13:02:25;100098.09;;;11.95;51.65
61484;BME280;47349;55.640;37.692;2023-04-10T13:04:53;100093.06;;;11.92;52.55
61484;BME280;47349;55.640;37.692;2023-04-10T13:07:22;100100.06;;;12.09;51.84
61484;BME280;47349;55.640;37.692;2023-04-10T13:10:04;100086.34;;;11.96;51.83
61484;BME280;47349;55.640;37.692;2023-04-10T13:12:34;100083.50;;;11.89;51.62
61484;BME280;47349;55.640;37.692;2023-04-10T13:15:06;100080.84;;;11.73;52.72
61484;BME280;47349;55.640;37.692;2023-04-10T13:17:33;100097.97;;;11.72;52.78
61484;BME280;47349;55.640;37.692;2023-04-10T13:20:01;100099.50;;;11.66;52.61
61484;BME280;47349;55.640;37.692;2023-04-10T13:22:28;100084.25;;;11.58;54.07
61484;BME280;47349;55.640;37.692;2023-04-10T13:24:55;100086.47;;;11.47;53.90
61484;BME280;47349;55.640;37.692;2023-04-10T13:27:21;100079.00;;;11.10;55.73
61484;BME280;47349;55.640;37.692;2023-04-10T13:29:48;100077.78;;;11.20;55.16
61484;BME280;47349;55.640;37.692;2023-04-10T13:32:15;100087.00;;;11.26;55.95
61484;BME280;47349;55.640;37.692;2023-04-10T13:34:42;100088.19;;;11.15;56.16
61484;BME280;47349;55.640;37.692;2023-04-10T13:37:09;100092.22;;;11.19;56.84
61484;BME280;47349;55.640;37.692;2023-04-10T13:42:43;100094.53;;;11.30;57.41
61484;BME280;47349;55.640;37.692;2023-04-10T13:45:10;100095.22;;;11.24;57.19
61484;BME280;47349;55.640;37.692;2023-04-10T13:47:37;100093.56;;;11.31;57.45
61484;BME280;47349;55.640;37.692;2023-04-10T13:50:04;100093.72;;;11.30;58.17
61484;BME280;47349;55.640;37.692;2023-04-10T13:52:31;100093.88;;;11.37;58.81
61484;BME280;47349;55.640;37.692;2023-04-10T13:54:58;100097.22;;;11.47;58.27
61484;BME280;47349;55.640;37.692;2023-04-10T13:57:25;100090.00;;;11.47;57.67
61484;BME280;47349;55.640;37.692;2023-04-10T13:59:52;100100.09;;;11.37;58.58
61484;BME280;47349;55.640;37.692;2023-04-10T14:02:19;100104.44;;;11.46;58.71
61484;BME280;47349;55.640;37.692;2023-04-10T14:04:46;100100.53;;;11.57;58.46
61484;BME280;47349;55.640;37.692;2023-04-10T14:07:13;100103.84;;;11.83;57.60
61484;BME280;47349;55.640;37.692;2023-04-10T14:09:40;100096.69;;;12.07;56.85
61484;BME280;47349;55.640;37.692;2023-04-10T14:12:07;100091.69;;;12.04;55.76
61484;BME280;47349;55.640;37.692;2023-04-10T14:14:34;100085.22;;;12.13;56.14
61484;BME280;47349;55.640;37.692;2023-04-10T14:17:01;100082.59;;;12.05;57.13
61484;BME280;47349;55.640;37.692;2023-04-10T14:19:28;100077.91;;;11.99;57.63
61484;BME280;47349;55.640;37.692;2023-04-10T14:21:55;100081.59;;;12.06;60.08
61484;BME280;47349;55.640;37.692;2023-04-10T14:24:22;100065.06;;;12.17;58.19
61484;BME280;47349;55.640;37.692;2023-04-10T14:26:50;100073.69;;;12.35;59.86
61484;BME280;47349;55.640;37.692;2023-04-10T14:29:19;100061.88;;;12.45;59.50